Decoded Metar for KBED (BEDFORD in MA, USA) (IATA:BED) | Meteo·Mobile Aviation Weather
aviador You're here:

KBED Decoded Metar

BEDFORD in MA, USA
Report Time2018-08-15 23:56:00
UTC Time2018-08-16 00:49:10
Flight Rules vfr VFR
Wind240° at 03 kt
W.Decomp.*RWY 23: 2.7 kt HW 1.3 kt RCW
RWY 29: 2.5 kt HW 1.7 kt LCW
W.Rank240° ranks 4
Current wind is below 240° avg. (6.0)
Visibility9999 m
Phenomena:N/A
Clouds:Few 050 Hf
Expected CloudBase > 1,200 ft AGL from Temp-Dew spread
CeilingNone
Temp25°C (ISA +10)
Dew Point22°C (83% RH)
QNH1011 hPa
Density Alt1,775 ft
Elevation164 ft
Report Wrong Elevation
Raw Report
KBED 152356Z 24003KT 10SM FEW050 25/22 A2985 RMK AO2 SLP119
T02500217 10311 20250 53011=

Extra information for KBED:More info

Metar Taf Metar & Taf Last 4 Metars F.Rules Stats Wind Profile Meteogram Temp Stats Airport Information Weather charts Add Link Nearby VenuesMetar ALERT Operation Metar Decoded Social comments

AIRNAV info for KBED